Time;durP1;ratioP1;P1;durP2;ratioP2;P2;SDS_P1;SDS_P2;PMS_P1;PMS_P2;Temp;Humidity;BMP_temperature;BMP_pressure;BME280_temperature;BME280_humidity;BME280_pressure;Samples;Min_cycle;Max_cycle;Signal;HPM_P1;HPM_P2
2023/05/04 00:01:09;;;;;;;15.40;9.10;;;10.00;99.90;;;;;;4950969;29;20031;-72
2023/05/04 00:03:35;;;;;;;14.18;9.52;;;9.90;99.90;;;;;;4942366;29;20028;-73
2023/05/04 00:06:01;;;;;;;14.43;9.43;;;9.90;99.90;;;;;;4952727;29;20062;-72
2023/05/04 00:08:27;;;;;;;15.32;9.25;;;9.90;99.90;;;;;;4939328;29;20376;-72
2023/05/04 00:10:54;;;;;;;12.52;9.27;;;9.90;99.90;;;;;;4950895;29;20394;-72
2023/05/04 00:13:20;;;;;;;15.20;9.32;;;9.90;99.90;;;;;;4953358;29;20403;-72
2023/05/04 00:15:45;;;;;;;19.35;9.80;;;9.80;99.90;;;;;;4950215;28;20028;-73
2023/05/04 00:18:11;;;;;;;18.73;9.30;;;9.80;99.90;;;;;;4944215;28;20063;-72
2023/05/04 00:20:37;;;;;;;13.65;9.48;;;9.80;99.90;;;;;;4956420;29;20023;-73
2023/05/04 00:23:02;;;;;;;13.98;9.98;;;9.80;99.90;;;;;;4955164;28;20058;-72
2023/05/04 00:25:28;;;;;;;15.85;9.55;;;9.80;99.90;;;;;;4954730;28;20070;-72
2023/05/04 00:27:54;;;;;;;14.85;9.80;;;9.80;99.90;;;;;;4952501;29;20386;-73
2023/05/04 00:30:20;;;;;;;14.10;10.05;;;9.70;99.90;;;;;;4949140;28;20063;-73
2023/05/04 00:32:45;;;;;;;14.95;9.52;;;9.70;99.90;;;;;;4945608;29;20020;-72
2023/05/04 00:35:11;;;;;;;14.48;9.45;;;9.70;99.90;;;;;;4955632;29;20588;-72
2023/05/04 00:37:37;;;;;;;14.48;9.77;;;9.60;99.90;;;;;;4953906;29;20027;-73
2023/05/04 00:40:03;;;;;;;15.65;9.40;;;9.60;99.90;;;;;;4951364;28;20074;-72
2023/05/04 00:42:29;;;;;;;17.63;10.15;;;9.60;99.90;;;;;;4956031;29;20054;-74
2023/05/04 00:44:54;;;;;;;15.00;10.30;;;9.60;99.90;;;;;;4956888;28;20058;-72
2023/05/04 00:47:21;;;;;;;15.55;9.60;;;9.50;99.90;;;;;;4949759;28;20031;-72
2023/05/04 00:49:46;;;;;;;14.48;9.90;;;9.50;99.90;;;;;;4952932;28;20078;-72
2023/05/04 00:52:13;;;;;;;17.05;9.85;;;9.50;99.90;;;;;;4955312;28;20039;-72
2023/05/04 00:54:42;;;;;;;15.68;10.23;;;9.50;99.90;;;;;;4953190;28;20031;-72
2023/05/04 00:57:08;;;;;;;17.88;9.98;;;9.50;99.90;;;;;;4954031;28;20047;-73
2023/05/04 00:59:33;;;;;;;16.75;10.07;;;9.50;99.90;;;;;;4952665;29;20061;-73
2023/05/04 01:01:59;;;;;;;16.75;10.38;;;9.50;99.90;;;;;;4949927;28;20015;-72
2023/05/04 01:04:25;;;;;;;15.88;9.82;;;9.40;99.90;;;;;;4954527;28;20028;-72
2023/05/04 01:07:05;;;;;;;17.55;10.88;;;9.40;99.90;;;;;;4949116;29;20411;-72
2023/05/04 01:09:42;;;;;;;14.82;10.85;;;9.40;99.90;;;;;;4942371;29;20032;-72
2023/05/04 01:12:17;;;;;;;17.83;10.90;;;9.40;99.90;;;;;;4952312;29;20387;-72
2023/05/04 01:14:42;;;;;;;20.38;11.30;;;9.40;99.90;;;;;;4945140;29;20054;-72
2023/05/04 01:17:09;;;;;;;17.00;10.60;;;9.30;99.90;;;;;;4942315;29;20059;-72
2023/05/04 01:19:35;;;;;;;17.05;10.50;;;9.40;99.90;;;;;;4948577;29;20062;-72
2023/05/04 01:22:01;;;;;;;16.85;10.27;;;9.30;99.90;;;;;;4953798;28;20055;-72
2023/05/04 01:24:28;;;;;;;17.33;11.25;;;9.30;99.90;;;;;;4957878;28;20030;-73
2023/05/04 01:27:22;;;;;;;17.52;11.05;;;9.30;99.90;;;;;;4950013;29;20027;-73
2023/05/04 01:30:39;;;;;;;19.77;10.93;;;9.30;99.90;;;;;;4950541;29;20414;-72
2023/05/04 01:33:05;;;;;;;16.20;10.80;;;9.30;99.90;;;;;;4945551;29;20110;-72
2023/05/04 01:35:31;;;;;;;19.00;10.80;;;9.20;99.90;;;;;;4951498;29;20055;-72
2023/05/04 01:37:58;;;;;;;16.77;10.80;;;9.20;99.90;;;;;;4950722;29;20058;-72
2023/05/04 01:40:24;;;;;;;20.70;11.15;;;9.20;99.90;;;;;;4953162;29;20082;-73
2023/05/04 01:42:49;;;;;;;24.35;11.90;;;9.10;99.90;;;;;;4953651;29;20423;-72
2023/05/04 01:45:15;;;;;;;15.88;10.85;;;9.10;99.90;;;;;;4943694;29;20031;-72
2023/05/04 01:47:41;;;;;;;17.15;10.45;;;9.10;99.90;;;;;;4954781;29;20443;-72
2023/05/04 01:50:07;;;;;;;24.17;12.30;;;9.10;99.90;;;;;;4953894;29;20019;-72
2023/05/04 01:52:32;;;;;;;15.05;11.07;;;9.10;99.90;;;;;;4948793;29;20126;-72
2023/05/04 01:54:58;;;;;;;17.15;10.98;;;9.00;99.90;;;;;;4946700;29;20031;-72
2023/05/04 01:57:25;;;;;;;18.38;11.23;;;9.00;99.90;;;;;;4954520;29;20047;-72
2023/05/04 01:59:50;;;;;;;16.48;11.10;;;9.00;99.90;;;;;;4948834;29;20560;-72
2023/05/04 02:02:16;;;;;;;21.55;12.02;;;9.00;99.90;;;;;;4950141;29;20027;-72
2023/05/04 02:04:42;;;;;;;16.10;11.27;;;9.00;99.90;;;;;;4947118;29;20130;-72
2023/05/04 02:07:07;;;;;;;18.08;11.65;;;9.00;99.90;;;;;;4950181;28;20031;-72
2023/05/04 02:09:34;;;;;;;18.23;11.50;;;9.00;99.90;;;;;;4945425;29;20351;-72
2023/05/04 02:12:00;;;;;;;18.02;10.95;;;9.00;99.90;;;;;;4951678;29;20563;-72
2023/05/04 02:14:25;;;;;;;17.67;11.35;;;9.00;99.90;;;;;;4951582;28;20027;-72
2023/05/04 02:16:51;;;;;;;19.15;11.68;;;8.90;99.90;;;;;;4950955;29;20024;-72
2023/05/04 02:19:16;;;;;;;18.45;12.10;;;8.90;99.90;;;;;;4946613;29;20490;-72
2023/05/04 02:21:42;;;;;;;16.83;11.63;;;8.90;99.90;;;;;;4950350;29;20028;-72
2023/05/04 02:24:08;;;;;;;21.77;11.40;;;8.90;99.90;;;;;;4948964;29;20035;-72
2023/05/04 02:26:35;;;;;;;18.85;11.50;;;8.90;99.90;;;;;;4945675;29;20698;-72
2023/05/04 02:29:02;;;;;;;20.02;12.00;;;8.90;99.90;;;;;;4947723;29;20024;-72
2023/05/04 02:31:28;;;;;;;16.38;11.82;;;8.80;99.90;;;;;;4944198;29;20046;-72
2023/05/04 02:33:53;;;;;;;20.70;11.90;;;8.80;99.90;;;;;;4936705;29;20036;-72
2023/05/04 02:36:19;;;;;;;15.30;11.10;;;8.80;99.90;;;;;;4953063;29;20098;-72
2023/05/04 02:38:45;;;;;;;18.98;11.40;;;8.80;99.90;;;;;;4953425;29;20360;-72
2023/05/04 02:41:10;;;;;;;17.33;10.95;;;8.80;99.90;;;;;;4949785;29;20030;-72
2023/05/04 02:43:36;;;;;;;18.25;11.45;;;8.80;99.90;;;;;;4954254;29;20027;-72
2023/05/04 02:46:02;;;;;;;17.60;11.85;;;8.80;99.90;;;;;;4953288;29;20031;-72
2023/05/04 02:48:27;;;;;;;19.98;12.10;;;8.70;99.90;;;;;;4951993;28;20155;-73
2023/05/04 02:50:53;;;;;;;20.67;11.90;;;8.70;99.90;;;;;;4941008;29;20060;-72
2023/05/04 02:53:19;;;;;;;19.30;11.43;;;8.70;99.90;;;;;;4946871;29;20030;-71
2023/05/04 02:55:44;;;;;;;19.75;12.30;;;8.60;99.90;;;;;;4943988;29;20032;-71
2023/05/04 02:58:10;;;;;;;15.13;11.02;;;8.60;99.90;;;;;;4951270;29;20117;-72
2023/05/04 03:00:35;;;;;;;18.77;11.73;;;8.60;99.90;;;;;;4945531;29;20047;-71
2023/05/04 03:03:01;;;;;;;15.77;10.88;;;8.60;99.90;;;;;;4945251;29;20046;-71
2023/05/04 03:05:27;;;;;;;18.10;11.45;;;8.60;99.90;;;;;;4946538;29;20027;-73
2023/05/04 03:07:52;;;;;;;18.67;11.02;;;8.50;99.90;;;;;;4940162;29;20036;-72
2023/05/04 03:10:18;;;;;;;19.10;11.82;;;8.50;99.90;;;;;;4949978;29;20075;-72
2023/05/04 03:12:43;;;;;;;18.33;11.25;;;8.50;99.90;;;;;;4952072;29;20395;-72
2023/05/04 03:15:09;;;;;;;19.48;11.60;;;8.50;99.90;;;;;;4952616;28;20016;-72
2023/05/04 03:17:35;;;;;;;15.40;11.02;;;8.50;99.90;;;;;;4952713;28;20022;-72
2023/05/04 03:20:01;;;;;;;19.38;11.70;;;8.50;99.90;;;;;;4942129;28;20028;-72
2023/05/04 03:22:27;;;;;;;18.40;11.07;;;8.50;99.90;;;;;;4943004;29;20032;-73
2023/05/04 03:24:52;;;;;;;19.00;11.25;;;8.40;99.90;;;;;;4949810;28;20035;-72
2023/05/04 03:27:18;;;;;;;20.10;10.57;;;8.40;99.90;;;;;;4949284;28;20035;-72
2023/05/04 03:29:43;;;;;;;18.80;11.18;;;8.40;99.90;;;;;;4950004;29;20039;-73
2023/05/04 03:32:10;;;;;;;17.08;11.77;;;8.40;99.90;;;;;;4945688;29;20051;-72
2023/05/04 03:34:36;;;;;;;18.90;11.23;;;8.40;99.90;;;;;;4949474;29;20025;-73
2023/05/04 03:37:01;;;;;;;17.52;10.65;;;8.40;99.90;;;;;;4950866;29;20027;-73
2023/05/04 03:39:27;;;;;;;15.73;11.13;;;8.40;99.90;;;;;;4951743;29;20027;-73
2023/05/04 03:41:52;;;;;;;15.15;10.98;;;8.30;99.90;;;;;;4953402;29;20019;-73
2023/05/04 03:44:18;;;;;;;17.40;10.68;;;8.30;99.90;;;;;;4944955;29;20055;-73
2023/05/04 03:46:44;;;;;;;17.50;11.07;;;8.30;99.90;;;;;;4946449;29;20020;-73
2023/05/04 03:49:09;;;;;;;15.23;10.38;;;8.30;99.90;;;;;;4946188;28;20019;-73
2023/05/04 03:51:35;;;;;;;21.75;11.05;;;8.30;99.90;;;;;;4953130;28;20034;-73
2023/05/04 03:54:01;;;;;;;19.48;10.05;;;8.30;99.90;;;;;;4948688;28;20023;-72
2023/05/04 03:56:26;;;;;;;19.38;10.73;;;8.20;99.90;;;;;;4948266;29;20676;-73
2023/05/04 03:58:52;;;;;;;16.02;10.48;;;8.20;99.90;;;;;;4942538;28;20034;-73
2023/05/04 04:01:18;;;;;;;17.02;10.98;;;8.20;99.90;;;;;;4952032;29;20103;-73
2023/05/04 04:03:43;;;;;;;15.10;10.40;;;8.20;99.90;;;;;;4953316;28;20019;-72
2023/05/04 04:06:10;;;;;;;17.27;10.52;;;8.10;99.90;;;;;;4952554;28;20054;-73
2023/05/04 04:08:35;;;;;;;18.92;10.60;;;8.10;99.90;;;;;;4953098;29;20034;-73
2023/05/04 04:11:01;;;;;;;15.73;10.07;;;8.10;99.90;;;;;;4952774;28;20531;-72
2023/05/04 04:13:27;;;;;;;16.17;10.40;;;8.10;99.90;;;;;;4949795;29;20028;-73
2023/05/04 04:15:53;;;;;;;15.00;10.35;;;8.10;99.90;;;;;;4953092;28;20031;-73
2023/05/04 04:18:19;;;;;;;17.52;11.57;;;8.10;99.90;;;;;;4953157;29;20027;-73
2023/05/04 04:20:45;;;;;;;18.58;10.70;;;8.10;99.90;;;;;;4952936;28;20025;-73
2023/05/04 04:23:10;;;;;;;16.90;10.23;;;8.10;99.90;;;;;;4946397;29;20052;-73
2023/05/04 04:25:36;;;;;;;19.40;10.38;;;8.00;99.90;;;;;;4946120;29;20031;-73
2023/05/04 04:28:02;;;;;;;16.17;10.52;;;8.00;99.90;;;;;;4950053;29;20076;-73
2023/05/04 04:30:28;;;;;;;17.08;10.13;;;8.00;99.90;;;;;;4950224;29;20055;-73
2023/05/04 04:32:55;;;;;;;20.23;10.60;;;8.00;99.90;;;;;;4949927;29;20383;-73
2023/05/04 04:35:22;;;;;;;15.77;10.50;;;8.00;99.90;;;;;;4953050;29;20038;-73
2023/05/04 04:37:47;;;;;;;20.10;11.00;;;8.00;99.90;;;;;;4950769;28;20055;-73
2023/05/04 04:40:13;;;;;;;20.23;10.55;;;8.00;99.90;;;;;;4952915;29;20058;-72
2023/05/04 04:42:39;;;;;;;16.55;10.18;;;8.00;99.90;;;;;;4952449;28;20452;-73
2023/05/04 04:45:05;;;;;;;15.63;9.90;;;8.00;99.90;;;;;;4949501;29;20578;-73
2023/05/04 04:47:31;;;;;;;19.75;10.35;;;8.00;99.90;;;;;;4955261;29;20360;-73
2023/05/04 04:49:57;;;;;;;16.40;10.80;;;8.00;99.90;;;;;;4956047;28;20019;-72
2023/05/04 04:52:23;;;;;;;17.98;10.50;;;8.00;99.90;;;;;;4942974;28;20034;-73
2023/05/04 04:54:48;;;;;;;17.30;9.85;;;8.10;99.90;;;;;;4941764;29;20028;-73
2023/05/04 04:57:14;;;;;;;18.17;10.57;;;8.00;99.90;;;;;;4950799;29;20035;-73
2023/05/04 04:59:39;;;;;;;18.75;10.32;;;8.00;99.90;;;;;;4949566;29;20098;-73
2023/05/04 05:02:05;;;;;;;16.05;9.95;;;8.00;99.90;;;;;;4942301;29;20029;-72
2023/05/04 05:04:31;;;;;;;16.40;11.15;;;8.10;99.90;;;;;;4952527;29;20031;-72
2023/05/04 05:06:57;;;;;;;18.20;10.88;;;8.10;99.90;;;;;;4955493;29;20022;-72
2023/05/04 05:09:23;;;;;;;20.40;10.30;;;8.10;99.90;;;;;;4945158;28;20032;-72
2023/05/04 05:11:49;;;;;;;20.58;10.48;;;8.10;99.90;;;;;;4955401;28;20034;-72
2023/05/04 05:14:14;;;;;;;16.63;10.70;;;8.10;99.90;;;;;;4952970;28;20070;-72
2023/05/04 05:16:40;;;;;;;17.90;10.68;;;8.20;99.90;;;;;;4947973;29;20360;-74
2023/05/04 05:19:05;;;;;;;20.23;10.27;;;8.20;99.90;;;;;;4949843;29;20015;-73
2023/05/04 05:21:31;;;;;;;16.85;10.10;;;8.20;99.90;;;;;;4951845;28;20455;-73
2023/05/04 05:23:56;;;;;;;15.50;11.10;;;8.20;99.90;;;;;;4952215;29;20070;-72
2023/05/04 05:26:23;;;;;;;16.05;9.98;;;8.30;99.90;;;;;;4955344;28;20466;-73
2023/05/04 05:28:49;;;;;;;18.15;10.85;;;8.30;99.90;;;;;;4942354;29;20024;-72
2023/05/04 05:31:14;;;;;;;17.45;10.57;;;8.30;99.90;;;;;;4952608;29;20090;-72
2023/05/04 05:33:40;;;;;;;19.33;10.48;;;8.30;99.90;;;;;;4955437;28;20058;-72
2023/05/04 05:36:06;;;;;;;16.02;9.65;;;8.30;99.90;;;;;;4953770;28;20115;-72
2023/05/04 05:38:32;;;;;;;16.35;9.93;;;8.30;99.90;;;;;;4949245;29;20098;-73
2023/05/04 05:40:57;;;;;;;17.25;10.40;;;8.30;99.90;;;;;;4954584;28;20062;-73
2023/05/04 05:43:23;;;;;;;16.30;10.27;;;8.40;99.90;;;;;;4944564;29;20050;-72
2023/05/04 05:45:48;;;;;;;16.73;10.57;;;8.40;99.90;;;;;;4945683;29;20046;-73
2023/05/04 05:48:14;;;;;;;18.65;10.55;;;8.40;99.90;;;;;;4954197;29;20031;-74
2023/05/04 05:50:40;;;;;;;18.95;10.68;;;8.40;99.90;;;;;;4950075;28;20072;-72
2023/05/04 05:53:05;;;;;;;19.52;10.55;;;8.40;99.90;;;;;;4942948;28;20079;-72
2023/05/04 05:55:31;;;;;;;16.08;10.38;;;8.50;99.90;;;;;;4955121;29;20058;-73
2023/05/04 05:57:57;;;;;;;16.17;10.05;;;8.50;99.90;;;;;;4951251;29;20055;-73
2023/05/04 06:00:23;;;;;;;16.27;10.23;;;8.50;99.90;;;;;;4954095;29;20035;-72
2023/05/04 06:02:49;;;;;;;17.25;10.73;;;8.50;99.90;;;;;;4953050;28;20024;-72
2023/05/04 06:05:15;;;;;;;17.55;10.38;;;8.50;99.90;;;;;;4947731;29;20078;-72
2023/05/04 06:07:41;;;;;;;16.75;10.20;;;8.60;99.90;;;;;;4953018;29;20498;-72
2023/05/04 06:10:07;;;;;;;17.05;11.10;;;8.60;99.90;;;;;;4951108;29;20534;-72
2023/05/04 06:12:33;;;;;;;17.25;10.60;;;8.70;99.90;;;;;;4954474;29;20051;-72
2023/05/04 06:14:59;;;;;;;15.25;10.70;;;8.70;99.90;;;;;;4946892;28;20024;-73
2023/05/04 06:17:24;;;;;;;18.77;11.32;;;8.80;99.90;;;;;;4948000;29;20046;-72
2023/05/04 06:19:50;;;;;;;18.55;10.63;;;8.80;99.90;;;;;;4946195;29;20047;-72
2023/05/04 06:22:16;;;;;;;18.30;10.45;;;8.90;99.90;;;;;;4953884;29;20023;-72
2023/05/04 06:24:42;;;;;;;17.10;10.30;;;8.90;99.90;;;;;;4953006;28;20027;-71
2023/05/04 06:27:07;;;;;;;16.30;10.45;;;9.00;99.90;;;;;;4952693;29;20034;-72
2023/05/04 06:29:33;;;;;;;19.08;10.63;;;9.10;99.90;;;;;;4951033;28;20024;-72
2023/05/04 06:31:59;;;;;;;18.38;10.52;;;9.10;99.90;;;;;;4954120;29;20023;-71
2023/05/04 06:34:25;;;;;;;17.77;10.18;;;9.20;99.90;;;;;;4953620;29;21418;-72
2023/05/04 06:36:50;;;;;;;19.95;10.85;;;9.30;99.90;;;;;;4951924;28;20098;-72
2023/05/04 06:39:16;;;;;;;19.02;11.40;;;9.40;99.90;;;;;;4951169;29;20553;-72
2023/05/04 06:41:42;;;;;;;16.58;10.40;;;9.50;99.90;;;;;;4953801;29;20026;-72
2023/05/04 06:44:07;;;;;;;21.10;10.88;;;9.50;99.90;;;;;;4950791;29;20020;-72
2023/05/04 06:46:35;;;;;;;15.38;10.77;;;9.60;99.90;;;;;;4948572;29;20059;-72
2023/05/04 06:49:03;;;;;;;18.88;10.32;;;9.70;99.90;;;;;;4944519;29;20035;-72
2023/05/04 06:51:28;;;;;;;21.63;11.02;;;9.80;99.90;;;;;;4952316;28;20066;-72
2023/05/04 06:53:54;;;;;;;17.10;11.32;;;9.80;99.90;;;;;;4953635;29;20063;-72
2023/05/04 06:56:20;;;;;;;15.93;10.88;;;10.00;99.90;;;;;;4950195;28;20051;-72
2023/05/04 06:58:46;;;;;;;15.73;10.60;;;10.00;99.90;;;;;;4954238;29;20093;-72
2023/05/04 07:01:11;;;;;;;18.95;10.73;;;10.10;99.90;;;;;;4949815;28;20034;-72
2023/05/04 07:03:37;;;;;;;17.40;10.63;;;10.20;99.90;;;;;;4944996;29;20090;-72
2023/05/04 07:06:03;;;;;;;17.17;10.65;;;10.20;99.90;;;;;;4946271;28;20031;-72
2023/05/04 07:08:29;;;;;;;18.17;11.13;;;10.30;99.90;;;;;;4943939;29;20079;-72
2023/05/04 07:10:55;;;;;;;17.45;10.88;;;10.40;99.90;;;;;;4946277;28;20050;-73
2023/05/04 07:13:21;;;;;;;18.33;10.50;;;10.60;99.90;;;;;;4944322;29;20024;-73
2023/05/04 07:15:46;;;;;;;20.13;11.10;;;10.60;99.90;;;;;;4943364;29;20074;-73
2023/05/04 07:18:12;;;;;;;15.55;10.68;;;10.70;99.90;;;;;;4938013;28;20510;-73
2023/05/04 07:20:41;;;;;;;18.00;10.23;;;10.80;99.90;;;;;;4943784;29;20055;-73
2023/05/04 07:23:06;;;;;;;22.08;10.52;;;10.90;99.90;;;;;;4944543;29;20035;-73
2023/05/04 07:25:32;;;;;;;19.50;10.65;;;11.00;99.90;;;;;;4944453;28;20178;-73
2023/05/04 07:27:58;;;;;;;18.55;10.18;;;11.10;99.90;;;;;;4948433;29;20502;-73
2023/05/04 07:30:23;;;;;;;15.93;10.25;;;11.20;99.90;;;;;;4943339;28;20058;-72
2023/05/04 07:32:49;;;;;;;16.63;10.35;;;11.30;99.90;;;;;;4944706;29;20024;-73
2023/05/04 07:35:15;;;;;;;26.15;11.35;;;11.40;99.90;;;;;;4948752;28;20482;-73
2023/05/04 07:37:41;;;;;;;21.60;9.65;;;11.50;99.90;;;;;;4943799;28;20034;-73
2023/05/04 07:40:07;;;;;;;17.02;9.35;;;11.70;99.90;;;;;;4951905;29;20033;-73
2023/05/04 07:42:33;;;;;;;18.67;10.20;;;11.80;99.90;;;;;;4938801;29;20031;-73
2023/05/04 07:45:00;;;;;;;16.67;9.57;;;11.90;99.90;;;;;;4943815;29;20036;-73
2023/05/04 07:47:26;;;;;;;16.25;9.68;;;12.10;99.90;;;;;;4947174;28;20114;-73
2023/05/04 07:49:52;;;;;;;15.15;9.50;;;12.20;99.90;;;;;;4949653;28;20162;-72
2023/05/04 07:52:17;;;;;;;16.30;9.82;;;12.30;99.90;;;;;;4946008;28;20071;-72
2023/05/04 07:54:43;;;;;;;14.70;9.70;;;12.40;99.90;;;;;;4946651;29;20098;-71
2023/05/04 07:57:09;;;;;;;14.63;9.57;;;12.50;99.90;;;;;;4950482;29;20066;-72
2023/05/04 07:59:34;;;;;;;16.92;9.40;;;12.60;99.90;;;;;;4950228;28;20032;-72
2023/05/04 08:02:00;;;;;;;14.98;9.57;;;12.70;99.90;;;;;;4948756;29;20028;-72
2023/05/04 08:04:26;;;;;;;18.52;9.18;;;12.80;99.90;;;;;;4944308;28;20031;-72
2023/05/04 08:06:52;;;;;;;13.88;8.73;;;12.90;99.90;;;;;;4935237;29;20059;-72
2023/05/04 08:09:18;;;;;;;13.23;8.43;;;12.90;99.90;;;;;;4935284;29;20099;-72
2023/05/04 08:11:48;;;;;;;13.88;9.15;;;13.00;99.90;;;;;;4938878;28;20019;-73
2023/05/04 08:14:14;;;;;;;17.15;9.48;;;13.00;99.90;;;;;;4946034;29;20034;-72
2023/05/04 08:16:40;;;;;;;16.52;9.38;;;13.00;99.90;;;;;;4953935;28;20028;-72
2023/05/04 08:19:05;;;;;;;18.73;9.48;;;13.10;99.90;;;;;;4942279;29;20028;-71
2023/05/04 08:21:31;;;;;;;19.05;8.88;;;13.20;99.90;;;;;;4953376;29;20027;-72
2023/05/04 08:23:57;;;;;;;14.27;9.18;;;13.40;99.90;;;;;;4955034;28;20034;-72
2023/05/04 08:26:23;;;;;;;17.83;9.45;;;13.50;99.90;;;;;;4952218;29;20114;-72
2023/05/04 08:28:49;;;;;;;17.23;9.13;;;13.60;99.90;;;;;;4960763;28;20028;-72
2023/05/04 08:31:17;;;;;;;14.05;8.80;;;13.80;99.90;;;;;;4939287;29;20111;-72
2023/05/04 08:33:43;;;;;;;17.48;9.95;;;14.00;99.90;;;;;;4948337;29;20090;-73
2023/05/04 08:36:08;;;;;;;13.02;9.23;;;14.10;99.90;;;;;;4953317;28;20023;-72
2023/05/04 08:38:34;;;;;;;13.25;8.50;;;14.30;99.90;;;;;;4955659;29;20038;-72
2023/05/04 08:41:04;;;;;;;13.77;8.27;;;14.40;99.90;;;;;;4949732;28;20059;-72
2023/05/04 08:43:34;;;;;;;13.73;8.63;;;14.60;99.90;;;;;;4950388;29;20031;-72
2023/05/04 08:45:59;;;;;;;13.95;9.05;;;14.70;99.90;;;;;;4944979;29;20549;-73
2023/05/04 08:48:25;;;;;;;12.63;8.73;;;14.90;99.90;;;;;;4954797;29;20042;-72
2023/05/04 08:50:51;;;;;;;14.32;9.02;;;15.00;99.90;;;;;;4950481;29;20027;-72
2023/05/04 08:53:20;;;;;;;17.65;8.93;;;15.10;99.90;;;;;;4952493;29;20046;-72
2023/05/04 08:55:48;;;;;;;13.35;8.68;;;15.30;99.90;;;;;;4954139;28;20042;-72
2023/05/04 08:58:16;;;;;;;13.07;8.68;;;15.50;99.90;;;;;;4949346;28;20043;-72
2023/05/04 09:00:43;;;;;;;14.40;9.07;;;15.70;99.90;;;;;;4949546;28;20110;-72
2023/05/04 09:03:09;;;;;;;13.57;9.07;;;15.80;99.90;;;;;;4946685;28;20030;-72
2023/05/04 09:05:37;;;;;;;17.05;8.65;;;16.00;99.90;;;;;;4939427;29;20026;-72
2023/05/04 09:08:02;;;;;;;13.75;8.13;;;16.10;99.90;;;;;;4948945;29;20032;-72
2023/05/04 09:10:29;;;;;;;13.18;8.55;;;16.30;99.90;;;;;;4951817;28;20023;-72
2023/05/04 09:12:55;;;;;;;12.02;8.13;;;16.50;99.90;;;;;;4946298;29;20042;-73
2023/05/04 09:15:22;;;;;;;16.52;7.85;;;16.60;99.90;;;;;;4953681;29;20035;-72
2023/05/04 09:17:58;;;;;;;11.95;7.97;;;16.70;99.90;;;;;;4955698;28;20394;-72
2023/05/04 09:20:24;;;;;;;13.73;8.38;;;16.80;99.90;;;;;;4951886;29;20031;-72
2023/05/04 09:23:02;;;;;;;12.00;8.40;;;16.90;99.90;;;;;;4951934;28;20031;-73
2023/05/04 09:25:27;;;;;;;14.32;8.93;;;17.00;99.90;;;;;;4940269;29;20392;-72
2023/05/04 09:27:55;;;;;;;14.70;8.48;;;17.10;99.90;;;;;;4942574;29;20023;-72
2023/05/04 09:30:21;;;;;;;13.23;8.00;;;17.30;99.90;;;;;;4954685;28;20474;-72
2023/05/04 09:32:48;;;;;;;19.50;8.57;;;17.40;99.90;;;;;;4941425;29;20030;-72
2023/05/04 09:35:17;;;;;;;15.73;7.90;;;17.60;99.90;;;;;;4946402;28;20051;-72
2023/05/04 09:37:47;;;;;;;11.77;7.65;;;17.70;99.90;;;;;;4949821;29;20408;-73
2023/05/04 09:40:13;;;;;;;12.07;7.53;;;17.80;99.90;;;;;;4951240;28;20108;-72
2023/05/04 09:42:39;;;;;;;15.80;7.95;;;18.00;99.90;;;;;;4948766;29;20046;-72
2023/05/04 09:45:09;;;;;;;11.90;7.82;;;18.10;99.90;;;;;;4954095;28;20458;-72
2023/05/04 09:47:40;;;;;;;13.23;8.20;;;18.20;99.90;;;;;;4950635;28;20032;-73
2023/05/04 09:50:16;;;;;;;11.13;7.70;;;18.40;99.90;;;;;;4945978;28;20038;-72
2023/05/04 09:52:43;;;;;;;11.00;8.60;;;18.50;99.90;;;;;;4939326;28;20111;-72
2023/05/04 09:55:13;;;;;;;11.02;7.45;;;18.50;99.90;;;;;;4942223;29;20026;-72
2023/05/04 09:57:43;;;;;;;12.43;8.05;;;18.50;99.90;;;;;;4950220;29;20047;-72
2023/05/04 10:00:14;;;;;;;13.43;8.02;;;18.60;99.50;;;;;;4952128;29;20639;-72
2023/05/04 10:02:42;;;;;;;10.98;7.60;;;18.60;99.10;;;;;;4953536;29;20078;-72
2023/05/04 10:05:09;;;;;;;13.88;7.85;;;18.70;98.60;;;;;;4948135;28;20066;-72
2023/05/04 10:07:35;;;;;;;11.32;7.90;;;18.80;98.60;;;;;;4949054;28;20078;-73
2023/05/04 10:10:02;;;;;;;11.85;7.88;;;18.90;98.40;;;;;;4953929;28;20059;-73
2023/05/04 10:12:27;;;;;;;10.77;7.38;;;18.90;98.00;;;;;;4952735;29;20038;-73
2023/05/04 10:14:53;;;;;;;12.48;7.63;;;19.00;97.70;;;;;;4954267;28;20514;-73
2023/05/04 10:17:49;;;;;;;16.02;7.90;;;19.10;97.40;;;;;;4943196;29;20030;-72
2023/05/04 10:20:31;;;;;;;;;;;19.20;96.40;;;;;;4943467;28;20435;-73
2023/05/04 10:23:22;;;;;;;12.65;7.97;;;19.20;96.20;;;;;;4938946;29;20021;-76
2023/05/04 10:26:12;;;;;;;15.75;8.27;;;19.30;96.20;;;;;;4949176;29;20145;-76
2023/05/04 10:28:55;;;;;;;13.80;7.93;;;19.40;95.90;;;;;;4928158;29;20047;-75
2023/05/04 10:31:21;;;;;;;14.60;7.95;;;19.50;95.60;;;;;;4948468;29;20080;-75
2023/05/04 10:33:47;;;;;;;15.00;7.75;;;19.70;95.20;;;;;;4947383;29;20518;-75
2023/05/04 10:36:13;;;;;;;12.48;7.70;;;19.80;95.00;;;;;;4951900;28;20564;-75
2023/05/04 10:38:40;;;;;;;12.35;7.72;;;19.90;94.10;;;;;;4952303;28;20030;-75
2023/05/04 10:41:13;;;;;;;14.20;8.02;;;20.00;93.30;;;;;;4949209;29;20102;-74
2023/05/04 10:43:38;;;;;;;13.18;7.85;;;19.90;92.90;;;;;;4954553;28;20538;-74
2023/05/04 10:46:23;;;;;;;12.25;7.00;;;20.00;92.70;;;;;;4947063;29;20150;-74
2023/05/04 10:48:50;;;;;;;13.63;8.43;;;20.20;92.00;;;;;;4941898;29;20431;-75
2023/05/04 10:51:25;;;;;;;12.65;8.05;;;20.30;91.90;;;;;;4947523;29;20033;-75
2023/05/04 10:53:51;;;;;;;18.60;7.93;;;20.40;91.90;;;;;;4950883;28;20043;-75
2023/05/04 10:56:25;;;;;;;13.15;8.15;;;20.40;91.10;;;;;;4953149;29;20046;-75
2023/05/04 10:58:51;;;;;;;10.70;7.50;;;20.50;90.90;;;;;;4939707;29;20027;-75
2023/05/04 11:01:18;;;;;;;15.60;8.18;;;20.60;90.90;;;;;;4947531;29;20118;-75
2023/05/04 11:03:44;;;;;;;12.95;8.00;;;20.70;90.70;;;;;;4953361;29;20030;-75
2023/05/04 11:06:22;;;;;;;13.18;8.02;;;20.70;90.50;;;;;;4952084;29;20078;-75
2023/05/04 11:09:02;;;;;;;12.35;8.10;;;20.80;89.90;;;;;;4948964;28;20066;-75
2023/05/04 11:11:27;;;;;;;12.10;7.68;;;20.80;88.40;;;;;;4947238;29;20364;-75
2023/05/04 11:13:53;;;;;;;16.92;8.25;;;20.90;88.40;;;;;;4943895;28;20030;-75
2023/05/04 11:16:26;;;;;;;14.70;8.23;;;20.90;88.10;;;;;;4953024;29;20051;-75
2023/05/04 11:18:53;;;;;;;14.73;8.63;;;21.10;88.30;;;;;;4945755;29;20367;-75
2023/05/04 11:21:24;;;;;;;15.30;8.52;;;21.20;87.10;;;;;;4953052;28;20027;-75
2023/05/04 11:23:57;;;;;;;16.25;9.48;;;21.30;87.00;;;;;;4952651;28;20027;-75
2023/05/04 11:26:23;;;;;;;15.52;9.00;;;21.40;85.10;;;;;;4953065;28;20035;-75
2023/05/04 11:28:49;;;;;;;13.68;9.05;;;21.40;84.00;;;;;;4951961;28;20359;-73
2023/05/04 11:31:16;;;;;;;15.15;8.95;;;21.40;83.80;;;;;;4949816;28;20135;-73
2023/05/04 11:33:53;;;;;;;13.35;9.32;;;21.40;84.00;;;;;;4946786;29;20522;-73
2023/05/04 11:36:20;;;;;;;15.95;9.38;;;21.30;84.30;;;;;;4946410;29;20199;-73
2023/05/04 11:38:46;;;;;;;14.73;9.73;;;21.30;85.00;;;;;;4944768;29;20024;-76
2023/05/04 11:41:12;;;;;;;15.25;9.77;;;21.40;85.60;;;;;;4948439;29;20090;-75
2023/05/04 11:43:40;;;;;;;17.92;9.52;;;21.50;86.60;;;;;;4953255;28;20518;-75
2023/05/04 11:46:08;;;;;;;16.83;9.68;;;21.70;85.90;;;;;;4948544;28;20091;-74
2023/05/04 11:48:35;;;;;;;15.55;9.80;;;21.70;85.40;;;;;;4939048;29;20395;-74
2023/05/04 11:51:02;;;;;;;14.70;9.27;;;21.80;84.40;;;;;;4938600;29;20024;-74
2023/05/04 11:53:38;;;;;;;17.30;9.70;;;21.80;83.50;;;;;;4952991;29;20023;-75
2023/05/04 11:56:07;;;;;;;14.82;9.63;;;21.90;82.10;;;;;;4949666;29;20024;-74
2023/05/04 11:58:32;;;;;;;14.70;9.60;;;21.90;82.80;;;;;;4953704;29;20019;-74
2023/05/04 12:00:58;;;;;;;13.52;9.63;;;22.00;83.60;;;;;;4956422;29;20065;-74
2023/05/04 12:03:31;;;;;;;14.07;9.45;;;22.10;83.60;;;;;;4952169;29;20027;-72
2023/05/04 12:06:00;;;;;;;18.30;9.55;;;22.20;83.20;;;;;;4946220;29;20051;-72
2023/05/04 12:08:40;;;;;;;16.95;9.90;;;22.30;82.70;;;;;;4950751;29;20035;-72
2023/05/04 12:11:15;;;;;;;15.25;9.95;;;22.40;83.70;;;;;;4955783;29;20090;-72
2023/05/04 12:13:42;;;;;;;19.20;10.10;;;22.40;81.80;;;;;;4944528;28;20051;-73
2023/05/04 12:16:16;;;;;;;16.45;10.10;;;22.50;81.80;;;;;;4948126;28;20396;-72
2023/05/04 12:18:44;;;;;;;15.67;9.70;;;22.60;81.00;;;;;;4954988;29;20042;-73
2023/05/04 12:21:12;;;;;;;16.33;9.93;;;22.60;80.80;;;;;;4955957;28;20016;-72
2023/05/04 12:23:38;;;;;;;12.88;9.77;;;22.70;80.00;;;;;;4955773;28;20071;-72
2023/05/04 12:26:05;;;;;;;20.33;9.23;;;22.70;79.90;;;;;;4954421;28;20016;-73
2023/05/04 12:28:31;;;;;;;13.13;9.50;;;22.90;79.60;;;;;;4955140;28;20063;-73
2023/05/04 12:30:58;;;;;;;17.48;10.55;;;23.00;79.10;;;;;;4955586;28;20109;-74
2023/05/04 12:33:24;;;;;;;15.80;9.55;;;23.10;78.30;;;;;;4947078;29;20023;-74
2023/05/04 12:35:49;;;;;;;13.05;9.32;;;23.10;76.40;;;;;;4945567;28;20376;-74
2023/05/04 12:38:15;;;;;;;12.02;9.38;;;23.10;76.70;;;;;;4953345;29;20023;-73